createdAt,value
2018-03-06T00:01:44.629Z,98644.20
2018-03-06T00:04:11.077Z,98633.89
2018-03-06T00:06:37.770Z,98631.61
2018-03-06T00:09:04.250Z,98637.14
2018-03-06T00:11:30.713Z,98628.76
2018-03-06T00:13:57.174Z,98623.22
2018-03-06T00:16:23.573Z,98620.66
2018-03-06T00:18:49.988Z,98621.20
2018-03-06T00:21:16.498Z,98625.67
2018-03-06T00:23:42.901Z,98633.66
2018-03-06T00:26:09.294Z,98628.70
2018-03-06T00:28:35.743Z,98632.88
2018-03-06T00:31:02.136Z,98632.50
2018-03-06T00:33:28.513Z,98626.81
2018-03-06T00:35:54.938Z,98614.87
2018-03-06T00:38:21.328Z,98608.18
2018-03-06T00:40:47.703Z,98597.98
2018-03-06T00:43:14.107Z,98583.47
2018-03-06T00:45:40.593Z,98583.03
2018-03-06T00:48:06.965Z,98584.46
2018-03-06T00:50:33.311Z,98567.48
2018-03-06T00:52:59.698Z,98549.02
2018-03-06T00:55:26.055Z,98542.78
2018-03-06T00:57:52.430Z,98546.20
2018-03-06T01:00:18.822Z,98553.22
2018-03-06T01:02:45.225Z,98558.35
2018-03-06T01:05:11.670Z,98559.53
2018-03-06T01:07:38.033Z,98555.95
2018-03-06T01:10:04.510Z,98555.98
2018-03-06T01:12:31.060Z,98559.47
2018-03-06T01:14:57.461Z,98552.72
2018-03-06T01:17:23.893Z,98552.63
2018-03-06T01:19:50.280Z,98563.13
2018-03-06T01:22:16.658Z,98557.27
2018-03-06T01:24:43.022Z,98548.33
2018-03-06T01:27:09.425Z,98532.95
2018-03-06T01:29:35.880Z,98531.63
2018-03-06T01:32:02.333Z,98533.83
2018-03-06T01:34:28.741Z,98536.42
2018-03-06T01:36:55.141Z,98541.40
2018-03-06T01:39:21.485Z,98565.63
2018-03-06T01:41:47.897Z,98565.14
2018-03-06T01:44:14.285Z,98558.36
2018-03-06T01:46:40.666Z,98551.58
2018-03-06T01:49:07.117Z,98536.20
2018-03-06T01:51:45.774Z,98542.52
2018-03-06T01:54:12.305Z,98550.20
2018-03-06T01:56:38.698Z,98566.53
2018-03-06T01:59:05.058Z,98565.58
2018-03-06T02:01:31.514Z,98554.08
2018-03-06T02:03:57.974Z,98551.90
2018-03-06T02:06:24.402Z,98541.34
2018-03-06T02:08:50.822Z,98545.38
2018-03-06T02:11:17.225Z,98537.45
2018-03-06T02:13:43.641Z,98528.41
2018-03-06T02:16:10.091Z,98520.96
2018-03-06T02:18:36.494Z,98521.23
2018-03-06T02:21:02.890Z,98522.25
2018-03-06T02:23:29.347Z,98528.50
2018-03-06T02:25:55.809Z,98519.30
2018-03-06T02:28:22.157Z,98513.17
2018-03-06T02:30:48.646Z,98512.77
2018-03-06T02:33:15.102Z,98497.64
2018-03-06T02:35:41.478Z,98492.84
2018-03-06T02:38:08.026Z,98496.11
2018-03-06T02:40:34.427Z,98477.52
2018-03-06T02:43:00.836Z,98461.81
2018-03-06T02:45:27.335Z,98460.89
2018-03-06T02:47:53.745Z,98472.02
2018-03-06T02:50:20.133Z,98486.44
2018-03-06T02:52:46.534Z,98495.29
2018-03-06T02:55:12.922Z,98485.93
2018-03-06T02:57:39.389Z,98484.20
2018-03-06T03:00:05.877Z,98480.83
2018-03-06T03:02:32.294Z,98456.03
2018-03-06T03:04:58.642Z,98445.94
2018-03-06T03:07:25.118Z,98462.37
2018-03-06T03:09:51.501Z,98470.13
2018-03-06T03:12:17.926Z,98475.28
2018-03-06T03:14:44.367Z,98472.95
2018-03-06T03:17:10.817Z,98460.27
2018-03-06T03:19:37.240Z,98465.66
2018-03-06T03:22:03.709Z,98486.65
2018-03-06T03:24:30.206Z,98474.89
2018-03-06T03:26:56.593Z,98481.59
2018-03-06T03:29:23.017Z,98481.00
2018-03-06T03:31:49.434Z,98481.20
2018-03-06T03:34:15.817Z,98481.66
2018-03-06T03:36:42.266Z,98480.80
2018-03-06T03:39:08.672Z,98487.77
2018-03-06T03:41:35.113Z,98495.81
2018-03-06T03:44:01.582Z,98492.95
2018-03-06T03:46:28.076Z,98479.23
2018-03-06T03:48:54.497Z,98480.05
2018-03-06T03:51:21.143Z,98470.72
2018-03-06T03:53:47.519Z,98476.92
2018-03-06T03:56:13.922Z,98472.91
2018-03-06T03:58:40.378Z,98446.85
2018-03-06T04:01:06.729Z,98441.97
2018-03-06T04:03:33.109Z,98451.92
2018-03-06T04:05:59.704Z,98459.41
2018-03-06T04:08:26.110Z,98468.92
2018-03-06T04:10:52.605Z,98474.30
2018-03-06T04:13:19.101Z,98477.39
2018-03-06T04:15:45.530Z,98470.55
2018-03-06T04:18:11.960Z,98474.61
2018-03-06T04:20:38.353Z,98481.23
2018-03-06T04:23:04.778Z,98479.67
2018-03-06T04:25:31.178Z,98483.92
2018-03-06T04:27:57.757Z,98475.38
2018-03-06T04:30:24.158Z,98472.10
2018-03-06T04:32:50.619Z,98471.06
2018-03-06T04:35:17.065Z,98469.91
2018-03-06T04:37:43.438Z,98463.00
2018-03-06T04:40:09.914Z,98457.32
2018-03-06T04:42:36.293Z,98459.92
2018-03-06T04:45:02.800Z,98466.17
2018-03-06T04:47:29.205Z,98462.22
2018-03-06T04:49:55.574Z,98469.39
2018-03-06T04:52:21.981Z,98480.72
2018-03-06T04:54:48.397Z,98477.47
2018-03-06T04:57:14.801Z,98475.08
2018-03-06T04:59:41.150Z,98464.08
2018-03-06T05:02:07.531Z,98469.50
2018-03-06T05:04:33.917Z,98472.31
2018-03-06T05:07:00.420Z,98473.22
2018-03-06T05:09:27.069Z,98476.59
2018-03-06T05:11:53.497Z,98475.56
2018-03-06T05:14:19.897Z,98479.06
2018-03-06T05:16:46.323Z,98485.45
2018-03-06T05:19:12.793Z,98476.68
2018-03-06T05:21:39.206Z,98476.97
2018-03-06T05:24:05.611Z,98474.25
2018-03-06T05:26:32.041Z,98476.97
2018-03-06T05:28:58.462Z,98473.56
2018-03-06T05:31:24.977Z,98480.56
2018-03-06T05:33:51.372Z,98480.38
2018-03-06T05:36:17.809Z,98480.92
2018-03-06T05:38:44.234Z,98482.66
2018-03-06T05:41:10.578Z,98484.30
2018-03-06T05:43:36.949Z,98484.89
2018-03-06T05:46:03.393Z,98487.03
2018-03-06T05:48:29.893Z,98484.47
2018-03-06T05:50:56.434Z,98481.70
2018-03-06T05:53:22.856Z,98488.80
2018-03-06T05:55:49.293Z,98491.20
2018-03-06T05:58:16.633Z,98491.92
2018-03-06T06:00:43.057Z,98500.01
2018-03-06T06:03:09.474Z,98495.06
2018-03-06T06:05:35.897Z,98493.83
2018-03-06T06:08:02.315Z,98498.01
2018-03-06T06:10:28.754Z,98502.83
2018-03-06T06:12:55.144Z,98498.80
2018-03-06T06:15:21.558Z,98504.97
2018-03-06T06:17:48.068Z,98502.14
2018-03-06T06:20:14.646Z,98506.30
2018-03-06T06:22:41.038Z,98511.31
2018-03-06T06:25:07.405Z,98510.70
2018-03-06T06:27:33.844Z,98505.78
2018-03-06T06:30:00.342Z,98514.97
2018-03-06T06:32:26.727Z,98512.77
2018-03-06T06:34:53.125Z,98520.70
2018-03-06T06:37:19.562Z,98517.13
2018-03-06T06:39:45.933Z,98527.65
2018-03-06T06:42:12.358Z,98529.84
2018-03-06T06:44:38.779Z,98530.05
2018-03-06T06:47:05.186Z,98533.53
2018-03-06T06:49:31.662Z,98528.22
2018-03-06T06:51:58.034Z,98530.94
2018-03-06T06:54:24.420Z,98532.80
2018-03-06T06:56:50.841Z,98533.73
2018-03-06T06:59:17.177Z,98527.58
2018-03-06T07:01:43.581Z,98536.87
2018-03-06T07:04:09.941Z,98530.63
2018-03-06T07:06:36.350Z,98530.08
2018-03-06T07:09:02.862Z,98524.83
2018-03-06T07:11:29.449Z,98522.83
2018-03-06T07:13:55.852Z,98533.09
2018-03-06T07:16:22.341Z,98527.53
2018-03-06T07:18:48.817Z,98527.02
2018-03-06T07:21:15.324Z,98528.66
2018-03-06T07:23:41.826Z,98519.02
2018-03-06T07:26:08.207Z,98523.16
2018-03-06T07:28:34.654Z,98529.34
2018-03-06T07:31:01.045Z,98532.56
2018-03-06T07:33:27.446Z,98538.23
2018-03-06T07:35:53.939Z,98549.17
2018-03-06T07:38:20.346Z,98545.66
2018-03-06T07:40:46.729Z,98547.20
2018-03-06T07:43:13.176Z,98546.45
2018-03-06T07:45:39.630Z,98546.63
2018-03-06T07:48:06.169Z,98548.47
2018-03-06T07:50:32.679Z,98546.84
2018-03-06T07:52:59.089Z,98537.41
2018-03-06T07:55:25.576Z,98546.44
2018-03-06T07:57:51.945Z,98551.63
2018-03-06T08:00:18.342Z,98547.63
2018-03-06T08:02:44.899Z,98549.42
2018-03-06T08:05:11.381Z,98559.70
2018-03-06T08:07:37.789Z,98567.92
2018-03-06T08:10:04.259Z,98570.42
2018-03-06T08:12:30.766Z,98576.06
2018-03-06T08:14:57.112Z,98561.89
2018-03-06T08:17:23.547Z,98566.83
2018-03-06T08:19:49.939Z,98569.11
2018-03-06T08:22:16.322Z,98568.13
2018-03-06T08:24:42.845Z,98566.57
2018-03-06T08:27:09.212Z,98565.09
2018-03-06T08:29:35.589Z,98561.94
2018-03-06T08:32:02.165Z,98548.53
2018-03-06T08:34:28.533Z,98550.58
2018-03-06T08:36:54.942Z,98547.81
2018-03-06T08:39:21.403Z,98556.64
2018-03-06T08:41:47.833Z,98546.55
2018-03-06T08:44:14.290Z,98545.27
2018-03-06T08:46:40.745Z,98539.29
2018-03-06T08:49:07.162Z,98547.71
2018-03-06T08:51:33.547Z,98554.04
2018-03-06T08:54:00.166Z,98560.81
2018-03-06T08:56:26.583Z,98559.99
2018-03-06T08:58:52.973Z,98557.46
2018-03-06T09:01:19.494Z,98552.20
2018-03-06T09:03:45.910Z,98542.81
2018-03-06T09:06:12.295Z,98548.36
2018-03-06T09:08:38.826Z,98543.38
2018-03-06T09:11:05.237Z,98534.34
2018-03-06T09:13:31.592Z,98516.64
2018-03-06T09:15:58.034Z,98513.73
2018-03-06T09:18:25.309Z,98513.48
2018-03-06T09:20:51.658Z,98526.02
2018-03-06T09:23:18.185Z,98528.92
2018-03-06T09:25:44.588Z,98514.33
2018-03-06T09:28:11.032Z,98514.23
2018-03-06T09:30:37.411Z,98516.65
2018-03-06T09:33:03.797Z,98521.69
2018-03-06T09:35:30.254Z,98521.83
2018-03-06T09:37:56.649Z,98528.48
2018-03-06T09:40:23.042Z,98526.66
2018-03-06T09:42:49.419Z,98526.61
2018-03-06T09:45:15.801Z,98537.75
2018-03-06T09:47:42.270Z,98540.37
2018-03-06T09:50:08.631Z,98521.17
2018-03-06T09:52:34.986Z,98515.41
2018-03-06T09:55:01.446Z,98514.95
2018-03-06T09:57:27.853Z,98523.42
2018-03-06T09:59:54.247Z,98519.36
2018-03-06T10:02:20.690Z,98510.09
2018-03-06T10:04:47.025Z,98513.16
2018-03-06T10:07:13.437Z,98512.38
2018-03-06T10:09:39.989Z,98518.97
2018-03-06T10:12:06.383Z,98531.09
2018-03-06T10:14:32.751Z,98545.33
2018-03-06T10:16:59.231Z,98550.77
2018-03-06T10:19:25.598Z,98537.95
2018-03-06T10:21:51.969Z,98537.23
2018-03-06T10:24:18.437Z,98540.20
2018-03-06T10:26:44.884Z,98536.42
2018-03-06T10:29:11.269Z,98532.04
2018-03-06T10:31:37.729Z,98522.34
2018-03-06T10:34:04.078Z,98537.23
2018-03-06T10:36:30.610Z,98544.01
2018-03-06T10:38:57.041Z,98548.40
2018-03-06T10:41:23.498Z,98558.70
2018-03-06T10:43:49.855Z,98564.78
2018-03-06T10:46:16.593Z,98563.13
2018-03-06T10:48:43.409Z,98555.20
2018-03-06T10:51:09.746Z,98550.61
2018-03-06T10:53:36.177Z,98561.37
2018-03-06T10:56:02.607Z,98549.27
2018-03-06T10:58:29.125Z,98540.86
2018-03-06T11:00:55.600Z,98542.59
2018-03-06T11:03:22.135Z,98540.99
2018-03-06T11:05:48.568Z,98536.87
2018-03-06T11:08:15.202Z,98544.48
2018-03-06T11:10:41.569Z,98544.02
2018-03-06T11:13:07.970Z,98537.38
2018-03-06T11:15:34.471Z,98531.77
2018-03-06T11:18:00.923Z,98524.07
2018-03-06T11:20:27.381Z,98525.56
2018-03-06T11:22:53.858Z,98527.91
2018-03-06T11:25:20.222Z,98520.86
2018-03-06T11:27:46.673Z,98524.34
2018-03-06T11:30:13.066Z,98518.39
2018-03-06T11:32:39.679Z,98525.50
2018-03-06T11:35:06.085Z,98531.78
2018-03-06T11:37:32.493Z,98542.36
2018-03-06T11:39:58.981Z,98529.70
2018-03-06T11:42:26.236Z,98527.02
2018-03-06T11:44:52.991Z,98524.55
2018-03-06T11:47:19.402Z,98514.27
2018-03-06T11:49:45.942Z,98500.65
2018-03-06T11:52:12.498Z,98495.98
2018-03-06T11:54:38.955Z,98484.91
2018-03-06T11:57:05.356Z,98477.05
2018-03-06T11:59:31.969Z,98477.75
2018-03-06T12:01:58.418Z,98486.39
2018-03-06T12:04:24.889Z,98475.06
2018-03-06T12:06:51.281Z,98471.88
2018-03-06T12:09:17.729Z,98481.38
2018-03-06T12:11:44.219Z,98465.44
2018-03-06T12:14:10.620Z,98449.78
2018-03-06T12:16:37.000Z,98442.66
2018-03-06T12:19:03.470Z,98435.97
2018-03-06T12:21:29.907Z,98442.23
2018-03-06T12:23:56.317Z,98461.19
2018-03-06T12:26:22.749Z,98481.77
2018-03-06T12:28:49.227Z,98490.91
2018-03-06T12:31:15.693Z,98500.01
2018-03-06T12:33:42.098Z,98492.17
2018-03-06T12:36:08.546Z,98500.82
2018-03-06T12:38:35.014Z,98497.74
2018-03-06T12:41:01.354Z,98483.92
2018-03-06T12:43:27.821Z,98479.86
2018-03-06T12:45:54.297Z,98479.86
2018-03-06T12:48:20.730Z,98484.00
2018-03-06T12:50:47.129Z,98478.94
2018-03-06T12:53:13.494Z,98480.88
2018-03-06T12:55:39.850Z,98482.44
2018-03-06T12:58:06.273Z,98485.77
2018-03-06T13:00:32.879Z,98483.64
2018-03-06T13:02:59.290Z,98485.23
2018-03-06T13:05:25.747Z,98484.41
2018-03-06T13:07:52.238Z,98467.13
2018-03-06T13:10:18.587Z,98466.09
2018-03-06T13:12:45.621Z,98471.30
2018-03-06T13:15:12.022Z,98471.72
2018-03-06T13:17:38.513Z,98473.68
2018-03-06T13:20:04.894Z,98465.78
2018-03-06T13:22:31.278Z,98471.02
2018-03-06T13:24:57.795Z,98468.34
2018-03-06T13:27:24.230Z,98458.55
2018-03-06T13:29:50.645Z,98459.57
2018-03-06T13:32:17.100Z,98476.14
2018-03-06T13:34:43.481Z,98471.00
2018-03-06T13:37:09.869Z,98474.55
2018-03-06T13:39:36.306Z,98484.39
2018-03-06T13:42:02.785Z,98473.38
2018-03-06T13:44:29.134Z,98466.78
2018-03-06T13:46:55.522Z,98461.67
2018-03-06T13:49:22.010Z,98442.98
2018-03-06T13:51:48.510Z,98435.39
2018-03-06T13:54:14.885Z,98441.05
2018-03-06T13:56:41.345Z,98451.33
2018-03-06T13:59:07.787Z,98444.92
2018-03-06T14:01:34.181Z,98446.83
2018-03-06T14:04:00.557Z,98451.76
2018-03-06T14:06:26.917Z,98451.08
2018-03-06T14:08:53.293Z,98447.30
2018-03-06T14:11:19.669Z,98451.80
2018-03-06T14:13:46.083Z,98448.86
2018-03-06T14:16:12.460Z,98433.40
2018-03-06T14:18:38.850Z,98432.69
2018-03-06T14:21:05.298Z,98430.59
2018-03-06T14:23:31.663Z,98421.03
2018-03-06T14:25:58.018Z,98419.62
2018-03-06T14:28:24.433Z,98436.30
2018-03-06T14:30:50.793Z,98443.75
2018-03-06T14:33:17.297Z,98444.72
2018-03-06T14:35:43.701Z,98439.37
2018-03-06T14:38:10.107Z,98445.97
2018-03-06T14:40:36.521Z,98432.42
2018-03-06T14:43:02.918Z,98431.11
2018-03-06T14:45:29.345Z,98440.79
2018-03-06T14:47:55.915Z,98455.11
2018-03-06T14:50:22.568Z,98443.12
2018-03-06T14:52:49.060Z,98435.44
2018-03-06T14:55:15.655Z,98431.22
2018-03-06T14:57:42.041Z,98440.92
2018-03-06T15:00:08.658Z,98441.27
2018-03-06T15:02:35.258Z,98432.70
2018-03-06T15:05:01.634Z,98441.99
2018-03-06T15:07:28.093Z,98448.02
2018-03-06T15:09:54.542Z,98440.50
2018-03-06T15:12:20.910Z,98435.41
2018-03-06T15:14:47.324Z,98426.36
2018-03-06T15:17:13.709Z,98436.89
2018-03-06T15:19:40.353Z,98439.76
2018-03-06T15:22:06.701Z,98442.42
2018-03-06T15:24:33.160Z,98453.80
2018-03-06T15:26:59.694Z,98453.08
2018-03-06T15:29:26.157Z,98461.66
2018-03-06T15:31:52.517Z,98470.14
2018-03-06T15:34:18.917Z,98474.74
2018-03-06T15:36:45.277Z,98466.66
2018-03-06T15:39:11.737Z,98467.05
2018-03-06T15:41:38.183Z,98466.02
2018-03-06T15:44:04.557Z,98459.15
2018-03-06T15:46:31.030Z,98449.25
2018-03-06T15:48:57.498Z,98450.73
2018-03-06T15:51:23.958Z,98456.72
2018-03-06T15:53:50.334Z,98456.94
2018-03-06T15:56:16.790Z,98455.84
2018-03-06T15:58:43.368Z,98464.19
2018-03-06T16:01:09.767Z,98471.74
2018-03-06T16:03:36.093Z,98467.34
2018-03-06T16:06:02.537Z,98469.13
2018-03-06T16:08:29.009Z,98471.24
2018-03-06T16:10:55.369Z,98461.42
2018-03-06T16:13:21.745Z,98458.12
2018-03-06T16:15:48.154Z,98451.56
2018-03-06T16:18:14.542Z,98448.88
2018-03-06T16:20:40.920Z,98454.27
2018-03-06T16:23:07.330Z,98433.83
2018-03-06T16:25:33.741Z,98431.63
2018-03-06T16:28:00.202Z,98439.75
2018-03-06T16:30:26.671Z,98443.58
2018-03-06T16:32:53.045Z,98444.75
2018-03-06T16:35:19.454Z,98446.70
2018-03-06T16:37:45.878Z,98464.22
2018-03-06T16:40:12.284Z,98468.22
2018-03-06T16:42:38.665Z,98475.13
2018-03-06T16:45:05.058Z,98486.32
2018-03-06T16:47:31.435Z,98488.81
2018-03-06T16:49:57.816Z,98488.95
2018-03-06T16:52:24.221Z,98476.34
2018-03-06T16:54:50.645Z,98467.97
2018-03-06T16:57:17.041Z,98464.40
2018-03-06T16:59:43.429Z,98467.27
2018-03-06T17:02:09.831Z,98458.52
2018-03-06T17:04:36.211Z,98463.34
2018-03-06T17:07:02.687Z,98462.31
2018-03-06T17:09:29.290Z,98473.83
2018-03-06T17:11:55.646Z,98491.33
2018-03-06T17:14:22.045Z,98489.31
2018-03-06T17:16:48.437Z,98495.83
2018-03-06T17:19:14.813Z,98493.39
2018-03-06T17:21:41.239Z,98482.83
2018-03-06T17:24:07.678Z,98479.72
2018-03-06T17:26:34.142Z,98483.43
2018-03-06T17:29:00.788Z,98488.28
2018-03-06T17:31:27.177Z,98496.96
2018-03-06T17:33:53.619Z,98502.42
2018-03-06T17:36:20.031Z,98509.11
2018-03-06T17:38:46.357Z,98506.95
2018-03-06T17:41:12.762Z,98513.64
2018-03-06T17:43:39.140Z,98512.02
2018-03-06T17:46:05.506Z,98491.90
2018-03-06T17:48:32.041Z,98483.50
2018-03-06T17:50:58.506Z,98468.95
2018-03-06T17:53:24.888Z,98466.43
2018-03-06T17:55:51.317Z,98463.56
2018-03-06T17:58:17.693Z,98461.37
2018-03-06T18:00:44.193Z,98467.88
2018-03-06T18:03:10.935Z,98463.63
2018-03-06T18:05:37.402Z,98449.64
2018-03-06T18:08:03.887Z,98453.29
2018-03-06T18:10:30.418Z,98464.05
2018-03-06T18:12:56.786Z,98467.31
2018-03-06T18:15:23.166Z,98465.97
2018-03-06T18:17:49.557Z,98468.52
2018-03-06T18:20:15.930Z,98479.92
2018-03-06T18:22:42.537Z,98465.44
2018-03-06T18:25:08.994Z,98470.82
2018-03-06T18:27:36.198Z,98473.72
2018-03-06T18:30:04.596Z,98472.45
2018-03-06T18:32:30.989Z,98472.38
2018-03-06T18:34:57.470Z,98464.38
2018-03-06T18:37:24.025Z,98457.12
2018-03-06T18:39:50.517Z,98454.67
2018-03-06T18:42:16.897Z,98463.42
2018-03-06T18:44:43.686Z,98466.92
2018-03-06T18:47:10.254Z,98461.47
2018-03-06T18:49:36.746Z,98455.77
2018-03-06T18:52:03.194Z,98464.69
2018-03-06T18:54:29.605Z,98458.84
2018-03-06T18:56:55.986Z,98452.66
2018-03-06T18:59:22.397Z,98465.47
2018-03-06T19:15:12.421Z,98454.45
2018-03-06T19:17:38.858Z,98444.16
2018-03-06T19:20:05.301Z,98441.25
2018-03-06T19:22:31.776Z,98428.19
2018-03-06T19:24:58.172Z,98430.34
2018-03-06T19:27:24.602Z,98441.25
2018-03-06T19:29:51.045Z,98434.56
2018-03-06T19:32:17.409Z,98427.27
2018-03-06T19:34:43.833Z,98414.66
2018-03-06T19:37:10.213Z,98424.82
2018-03-06T19:39:36.789Z,98426.13
2018-03-06T19:42:03.213Z,98428.25
2018-03-06T19:44:29.732Z,98425.64
2018-03-06T19:46:56.497Z,98428.47
2018-03-06T19:49:22.992Z,98440.08
2018-03-06T19:51:49.368Z,98433.48
2018-03-06T19:54:15.758Z,98410.55
2018-03-06T19:56:42.152Z,98411.55
2018-03-06T19:59:08.601Z,98415.54
2018-03-06T20:01:35.054Z,98439.95
2018-03-06T20:04:01.490Z,98449.31
2018-03-06T20:06:27.921Z,98430.02
2018-03-06T20:08:54.418Z,98412.32
2018-03-06T20:11:20.849Z,98424.28
2018-03-06T20:13:47.244Z,98422.69
2018-03-06T20:16:13.749Z,98424.52
2018-03-06T20:18:40.236Z,98416.56
2018-03-06T20:21:06.869Z,98409.94
2018-03-06T20:23:33.361Z,98407.97
2018-03-06T20:25:59.785Z,98394.52
2018-03-06T20:28:26.280Z,98385.37
2018-03-06T20:30:59.038Z,98394.55
2018-03-06T20:33:25.469Z,98386.30
2018-03-06T20:35:51.821Z,98380.92
2018-03-06T20:38:24.238Z,98379.68
2018-03-06T20:40:50.661Z,98379.01
2018-03-06T20:43:17.076Z,98373.34
2018-03-06T20:45:49.526Z,98372.98
2018-03-06T20:48:15.932Z,98374.48
2018-03-06T20:50:42.302Z,98368.88
2018-03-06T20:53:14.889Z,98350.17
2018-03-06T20:55:41.250Z,98349.88
2018-03-06T20:58:07.682Z,98344.15
2018-03-06T21:00:34.063Z,98350.84
2018-03-06T21:03:00.504Z,98348.29
2018-03-06T21:05:26.869Z,98348.82
2018-03-06T21:07:53.353Z,98348.47
2018-03-06T21:10:19.774Z,98340.61
2018-03-06T21:12:46.181Z,98339.58
2018-03-06T21:15:12.641Z,98332.68
2018-03-06T21:17:39.072Z,98328.97
2018-03-06T21:20:05.538Z,98329.55
2018-03-06T21:22:31.991Z,98330.66
2018-03-06T21:24:58.403Z,98329.55
2018-03-06T21:27:24.858Z,98329.16
2018-03-06T21:29:51.229Z,98337.63
2018-03-06T21:32:17.622Z,98306.36
2018-03-06T21:34:44.012Z,98305.80
2018-03-06T21:37:10.386Z,98302.64
2018-03-06T21:39:36.985Z,98305.22
2018-03-06T21:42:03.494Z,98289.98
2018-03-06T21:44:29.874Z,98297.66
2018-03-06T21:46:56.297Z,98300.90
2018-03-06T21:49:22.896Z,98307.30
2018-03-06T21:51:49.389Z,98311.29
2018-03-06T21:54:15.893Z,98316.29
2018-03-06T21:56:42.266Z,98316.64
2018-03-06T21:59:08.646Z,98302.14
2018-03-06T22:01:34.989Z,98319.11
2018-03-06T22:04:01.441Z,98334.40
2018-03-06T22:06:27.839Z,98322.64
2018-03-06T22:08:54.331Z,98304.61
2018-03-06T22:11:20.855Z,98314.93
2018-03-06T22:13:47.278Z,98317.69
2018-03-06T22:16:13.665Z,98319.13
2018-03-06T22:18:40.058Z,98312.06
2018-03-06T22:21:06.441Z,98299.05
2018-03-06T22:23:32.889Z,98300.36
2018-03-06T22:25:59.369Z,98308.24
2018-03-06T22:28:25.843Z,98308.70
2018-03-06T22:30:52.210Z,98290.68
2018-03-06T22:33:18.602Z,98277.14
2018-03-06T22:35:44.962Z,98271.48
2018-03-06T22:38:11.374Z,98267.45
2018-03-06T22:40:37.724Z,98257.13
2018-03-06T22:43:04.153Z,98264.23
2018-03-06T22:45:30.621Z,98275.75
2018-03-06T22:47:57.068Z,98263.34
2018-03-06T22:50:23.478Z,98267.52
2018-03-06T22:52:49.905Z,98276.11
2018-03-06T22:55:16.293Z,98275.58
2018-03-06T22:57:42.804Z,98281.48
2018-03-06T23:00:09.237Z,98294.43
2018-03-06T23:02:35.637Z,98294.05
2018-03-06T23:05:02.103Z,98289.25
2018-03-06T23:07:28.489Z,98300.78
2018-03-06T23:09:54.897Z,98298.12
2018-03-06T23:12:21.301Z,98299.97
2018-03-06T23:14:47.679Z,98293.41
2018-03-06T23:17:14.038Z,98286.61
2018-03-06T23:19:40.466Z,98287.52
2018-03-06T23:22:06.862Z,98285.50
2018-03-06T23:24:33.294Z,98276.83
2018-03-06T23:26:59.649Z,98269.31
2018-03-06T23:29:26.009Z,98267.38
2018-03-06T23:31:52.394Z,98277.56
2018-03-06T23:34:18.753Z,98281.88
2018-03-06T23:36:45.110Z,98265.52
2018-03-06T23:39:11.477Z,98266.66
2018-03-06T23:41:37.861Z,98262.54
2018-03-06T23:44:04.226Z,98267.40
2018-03-06T23:46:30.577Z,98261.09
2018-03-06T23:48:56.929Z,98269.27
2018-03-06T23:51:23.353Z,98276.09
2018-03-06T23:53:49.721Z,98265.73
2018-03-06T23:56:16.115Z,98269.95
2018-03-06T23:58:42.466Z,98264.02
